Hauptseite
METAR-TAF:

METAR-TAF

Flughäfen :

Flughafen Algier

Algier, Algerien

Breite: 36-43N, Länge: 003-15E, Höhe: 25 m

Beobachtung

Neuester Wetterbericht von vor 24 Minuten, um 13:00 UTC
Wind 6 kt aus Nordost
Temperatur 19°C
Luftfeuchtigkeit 52%
Luftdruck 1024 hPa
Sichtweite 10 km oder mehr
keine Wolken unter 1500 m und keine Kumulonimbus oder Gewitterwolken

METAR: DAAG 201300Z 05006KT CAVOK 19/09 Q1024

Zeit: 14:24 (13:24 UTC)

Prognose

Neuester Wetterbericht von vor 2 Stunden und 24 Minuten, um 11:00 UTC
Gültige Prognose vom 20 um 12 UTC bis 21 um 12 UTC
Wind 8 kt aus Nordost
Sichtweite 10 km oder mehr
Leicht bewölkt in der Höhe von 3000 ft

TAF: DAAG 201100Z 2012/2112 04008KT 9999 FEW030

Wetterbeobachtungen und Prognosen von mehr als 4000 Flughäfen (METAR und TAF Bericht).

Die verfügbaren Stationen werden durch gelbe und rote Markierungen auf der Karte dargestellt.

Führen Sie die Maus auf sie, um den Namen der Station zu sehen.

Darauf klicken, um die Beobachtung von Wetterbeobachtungen und Prognosen zu sehen.

Um die Karte zu ändern : klicken Sie auf den grünen Tasten mit einem schwarzen Kreuz Zum Vergrößern, auf den grünen Button mit einem Gedankenstrich zu verkleinern, oder auf die grünen Pfeile für benachbarte Karten.


METAR-TAF: